sensor_id;sensor_type;location;lat;lon;timestamp;pressure;altitude;pressure_sealevel;temperature;humidity
34185;BME280;20454;48.100;11.776;2022-11-20T00:00:53;94848.25;;;5.44;100.00
34185;BME280;20454;48.100;11.776;2022-11-20T00:03:19;94842.72;;;5.44;100.00
34185;BME280;20454;48.100;11.776;2022-11-20T00:05:45;94846.59;;;5.43;100.00
34185;BME280;20454;48.100;11.776;2022-11-20T00:08:11;94848.25;;;5.44;100.00
34185;BME280;20454;48.100;11.776;2022-11-20T00:10:41;94846.28;;;5.44;100.00
34185;BME280;20454;48.100;11.776;2022-11-20T00:13:07;94842.53;;;5.40;100.00
34185;BME280;20454;48.100;11.776;2022-11-20T00:15:33;94848.34;;;5.39;100.00
34185;BME280;20454;48.100;11.776;2022-11-20T00:17:59;94854.06;;;5.42;100.00
34185;BME280;20454;48.100;11.776;2022-11-20T00:20:25;94854.88;;;5.43;100.00
34185;BME280;20454;48.100;11.776;2022-11-20T00:22:51;94849.38;;;5.43;100.00
34185;BME280;20454;48.100;11.776;2022-11-20T00:25:17;94854.88;;;5.43;100.00
34185;BME280;20454;48.100;11.776;2022-11-20T00:27:43;94863.38;;;5.46;100.00
34185;BME280;20454;48.100;11.776;2022-11-20T00:30:09;94849.03;;;5.44;100.00
34185;BME280;20454;48.100;11.776;2022-11-20T00:32:35;94858.44;;;5.43;100.00
34185;BME280;20454;48.100;11.776;2022-11-20T00:35:01;94853.13;;;5.47;100.00
34185;BME280;20454;48.100;11.776;2022-11-20T00:37:26;94862.53;;;5.46;100.00
34185;BME280;20454;48.100;11.776;2022-11-20T00:39:52;94870.38;;;5.52;100.00
34185;BME280;20454;48.100;11.776;2022-11-20T00:42:18;94857.22;;;5.49;100.00
34185;BME280;20454;48.100;11.776;2022-11-20T00:44:44;94869.88;;;5.50;100.00
34185;BME280;20454;48.100;11.776;2022-11-20T00:47:10;94868.75;;;5.51;100.00
34185;BME280;20454;48.100;11.776;2022-11-20T00:49:35;94869.28;;;5.53;100.00
34185;BME280;20454;48.100;11.776;2022-11-20T00:52:01;94872.03;;;5.53;100.00
34185;BME280;20454;48.100;11.776;2022-11-20T00:54:27;94876.09;;;5.56;100.00
34185;BME280;20454;48.100;11.776;2022-11-20T00:56:53;94874.47;;;5.55;100.00
34185;BME280;20454;48.100;11.776;2022-11-20T00:59:19;94876.09;;;5.56;100.00
34185;BME280;20454;48.100;11.776;2022-11-20T01:01:45;94880.19;;;5.58;100.00
34185;BME280;20454;48.100;11.776;2022-11-20T01:04:10;94871.72;;;5.55;100.00
34185;BME280;20454;48.100;11.776;2022-11-20T01:06:38;94879.19;;;5.54;100.00
34185;BME280;20454;48.100;11.776;2022-11-20T01:09:09;94890.44;;;5.58;100.00
34185;BME280;20454;48.100;11.776;2022-11-20T01:11:39;94883.28;;;5.57;100.00
34185;BME280;20454;48.100;11.776;2022-11-20T01:14:11;94889.31;;;5.59;100.00
34185;BME280;20454;48.100;11.776;2022-11-20T01:16:41;94897.28;;;5.60;100.00
34185;BME280;20454;48.100;11.776;2022-11-20T01:19:13;94881.94;;;5.54;100.00
34185;BME280;20454;48.100;11.776;2022-11-20T01:21:42;94892.56;;;5.61;100.00
34185;BME280;20454;48.100;11.776;2022-11-20T01:24:13;94890.72;;;5.56;100.00
34185;BME280;20454;48.100;11.776;2022-11-20T01:26:41;94898.38;;;5.59;100.00
34185;BME280;20454;48.100;11.776;2022-11-20T01:29:13;94895.03;;;5.62;100.00
34185;BME280;20454;48.100;11.776;2022-11-20T01:31:39;94894.63;;;5.55;100.00
34185;BME280;20454;48.100;11.776;2022-11-20T01:34:13;94894.81;;;5.59;100.00
34185;BME280;20454;48.100;11.776;2022-11-20T01:36:40;94889.00;;;5.60;100.00
34185;BME280;20454;48.100;11.776;2022-11-20T01:39:12;94890.44;;;5.58;100.00
34185;BME280;20454;48.100;11.776;2022-11-20T01:41:38;94884.19;;;5.66;100.00
34185;BME280;20454;48.100;11.776;2022-11-20T01:44:55;94892.78;;;5.64;100.00
34185;BME280;20454;48.100;11.776;2022-11-20T01:47:43;94887.34;;;5.59;100.00
34185;BME280;20454;48.100;11.776;2022-11-20T01:50:24;94889.50;;;5.62;100.00
34185;BME280;20454;48.100;11.776;2022-11-20T01:53:02;94896.34;;;5.65;100.00
34185;BME280;20454;48.100;11.776;2022-11-20T01:55:33;94895.72;;;5.68;100.00
34185;BME280;20454;48.100;11.776;2022-11-20T01:58:01;94893.59;;;5.65;100.00
34185;BME280;20454;48.100;11.776;2022-11-20T02:00:28;94882.88;;;5.63;100.00
34185;BME280;20454;48.100;11.776;2022-11-20T02:02:57;94891.13;;;5.63;100.00
34185;BME280;20454;48.100;11.776;2022-11-20T02:05:41;94876.72;;;5.66;100.00
34185;BME280;20454;48.100;11.776;2022-11-20T02:08:09;94885.81;;;5.67;100.00
34185;BME280;20454;48.100;11.776;2022-11-20T02:10:35;94890.84;;;5.65;100.00
34185;BME280;20454;48.100;11.776;2022-11-20T02:13:00;94873.16;;;5.66;99.89
34185;BME280;20454;48.100;11.776;2022-11-20T02:15:45;94883.38;;;5.65;99.70
34185;BME280;20454;48.100;11.776;2022-11-20T02:18:14;94891.34;;;5.67;99.70
34185;BME280;20454;48.100;11.776;2022-11-20T02:20:48;94894.41;;;5.65;99.58
34185;BME280;20454;48.100;11.776;2022-11-20T02:23:29;94888.69;;;5.62;99.97
34185;BME280;20454;48.100;11.776;2022-11-20T02:25:58;94897.69;;;5.67;99.16
34185;BME280;20454;48.100;11.776;2022-11-20T02:28:27;94892.28;;;5.62;98.77
34185;BME280;20454;48.100;11.776;2022-11-20T02:30:53;94898.50;;;5.68;99.36
34185;BME280;20454;48.100;11.776;2022-11-20T02:33:19;94894.72;;;5.64;99.13
34185;BME280;20454;48.100;11.776;2022-11-20T02:35:46;94902.38;;;5.67;98.74
34185;BME280;20454;48.100;11.776;2022-11-20T02:38:13;94903.22;;;5.67;98.33
34185;BME280;20454;48.100;11.776;2022-11-20T02:40:40;94904.31;;;5.66;98.27
34185;BME280;20454;48.100;11.776;2022-11-20T02:43:06;94900.75;;;5.66;98.45
34185;BME280;20454;48.100;11.776;2022-11-20T02:45:32;94901.56;;;5.66;98.42
34185;BME280;20454;48.100;11.776;2022-11-20T02:47:58;94898.50;;;5.68;98.11
34185;BME280;20454;48.100;11.776;2022-11-20T02:50:24;94906.19;;;5.71;97.52
34185;BME280;20454;48.100;11.776;2022-11-20T02:52:49;94893.81;;;5.68;97.66
34185;BME280;20454;48.100;11.776;2022-11-20T02:55:15;94903.72;;;5.69;98.00
34185;BME280;20454;48.100;11.776;2022-11-20T02:57:41;94895.22;;;5.66;97.90
34185;BME280;20454;48.100;11.776;2022-11-20T03:00:07;94900.44;;;5.67;98.01
34185;BME280;20454;48.100;11.776;2022-11-20T06:32:27;94916.44;;;5.38;95.22
34185;BME280;20454;48.100;11.776;2022-11-20T06:34:53;94914.94;;;5.32;95.56
34185;BME280;20454;48.100;11.776;2022-11-20T06:37:19;94911.13;;;5.28;95.91
34185;BME280;20454;48.100;11.776;2022-11-20T06:39:44;94915.31;;;5.26;96.06
34185;BME280;20454;48.100;11.776;2022-11-20T06:42:10;94922.44;;;5.27;96.09
34185;BME280;20454;48.100;11.776;2022-11-20T06:44:36;94926.97;;;5.23;95.67
34185;BME280;20454;48.100;11.776;2022-11-20T06:47:01;94934.19;;;5.19;95.75
34185;BME280;20454;48.100;11.776;2022-11-20T06:49:27;94930.72;;;5.13;95.87
34185;BME280;20454;48.100;11.776;2022-11-20T06:51:53;94936.22;;;5.13;96.20
34185;BME280;20454;48.100;11.776;2022-11-20T06:54:18;94941.72;;;5.13;96.08
34185;BME280;20454;48.100;11.776;2022-11-20T06:56:47;94949.50;;;5.11;96.52
34185;BME280;20454;48.100;11.776;2022-11-20T06:59:13;94954.47;;;5.09;96.27
34185;BME280;20454;48.100;11.776;2022-11-20T07:01:39;94948.25;;;5.04;96.56
34185;BME280;20454;48.100;11.776;2022-11-20T07:04:05;94956.00;;;5.02;96.73
34185;BME280;20454;48.100;11.776;2022-11-20T07:06:30;94955.66;;;5.03;97.05
34185;BME280;20454;48.100;11.776;2022-11-20T07:08:56;94962.91;;;4.99;97.60
34185;BME280;20454;48.100;11.776;2022-11-20T07:11:22;94953.25;;;5.02;97.14
34185;BME280;20454;48.100;11.776;2022-11-20T07:13:49;94960.69;;;5.01;97.06
34185;BME280;20454;48.100;11.776;2022-11-20T07:16:15;94962.00;;;5.04;96.34
34185;BME280;20454;48.100;11.776;2022-11-20T07:18:40;94957.91;;;5.01;95.77
34185;BME280;20454;48.100;11.776;2022-11-20T07:21:09;94956.09;;;5.10;95.45
34185;BME280;20454;48.100;11.776;2022-11-20T07:23:36;94964.81;;;5.17;94.67
34185;BME280;20454;48.100;11.776;2022-11-20T07:26:05;94957.06;;;5.19;93.72
34185;BME280;20454;48.100;11.776;2022-11-20T07:28:31;94964.94;;;5.26;93.67
34185;BME280;20454;48.100;11.776;2022-11-20T07:30:57;94967.84;;;5.34;92.37
34185;BME280;20454;48.100;11.776;2022-11-20T07:33:23;94964.28;;;5.47;91.57
34185;BME280;20454;48.100;11.776;2022-11-20T07:35:48;94968.09;;;5.65;90.76
34185;BME280;20454;48.100;11.776;2022-11-20T07:38:14;94973.41;;;5.75;90.65
34185;BME280;20454;48.100;11.776;2022-11-20T07:40:40;94962.31;;;5.80;90.14
34185;BME280;20454;48.100;11.776;2022-11-20T07:43:05;94964.78;;;5.81;89.85
34185;BME280;20454;48.100;11.776;2022-11-20T07:45:31;94961.47;;;5.79;89.89
34185;BME280;20454;48.100;11.776;2022-11-20T07:47:57;94959.25;;;5.81;88.81
34185;BME280;20454;48.100;11.776;2022-11-20T07:50:23;94963.41;;;5.79;89.62
34185;BME280;20454;48.100;11.776;2022-11-20T07:52:48;94949.91;;;5.77;88.64
34185;BME280;20454;48.100;11.776;2022-11-20T07:55:15;94963.53;;;5.87;88.73
34185;BME280;20454;48.100;11.776;2022-11-20T07:57:40;94957.72;;;5.89;88.36
34185;BME280;20454;48.100;11.776;2022-11-20T08:00:10;94959.88;;;5.92;88.36
34185;BME280;20454;48.100;11.776;2022-11-20T08:02:40;94953.44;;;5.96;87.03
34185;BME280;20454;48.100;11.776;2022-11-20T08:05:08;94947.81;;;6.01;86.80
34185;BME280;20454;48.100;11.776;2022-11-20T08:07:39;94959.66;;;6.02;86.07
34185;BME280;20454;48.100;11.776;2022-11-20T08:10:06;94953.34;;;6.01;85.75
34185;BME280;20454;48.100;11.776;2022-11-20T11:47:48;94853.84;;;8.42;66.20
34185;BME280;20454;48.100;11.776;2022-11-20T11:50:19;94867.69;;;8.50;66.42
34185;BME280;20454;48.100;11.776;2022-11-20T11:55:31;94871.94;;;8.56;63.75
34185;BME280;20454;48.100;11.776;2022-11-20T12:03:38;94872.13;;;8.77;63.81
34185;BME280;20454;48.100;11.776;2022-11-20T12:06:13;94874.56;;;8.87;64.18
34185;BME280;20454;48.100;11.776;2022-11-20T12:08:57;94866.25;;;9.04;63.94
34185;BME280;20454;48.100;11.776;2022-11-20T12:14:35;94858.22;;;9.19;61.77
34185;BME280;20454;48.100;11.776;2022-11-20T12:17:02;94859.66;;;9.25;61.94
34185;BME280;20454;48.100;11.776;2022-11-20T12:19:31;94868.81;;;9.17;60.07
34185;BME280;20454;48.100;11.776;2022-11-20T12:35:57;94866.72;;;8.63;65.79
34185;BME280;20454;48.100;11.776;2022-11-20T12:45:42;94880.97;;;8.06;75.76
34185;BME280;20454;48.100;11.776;2022-11-20T12:58:23;94857.66;;;7.51;78.66
34185;BME280;20454;48.100;11.776;2022-11-20T13:01:28;94858.94;;;7.53;77.52
34185;BME280;20454;48.100;11.776;2022-11-20T13:06:56;94859.59;;;7.50;80.03
34185;BME280;20454;48.100;11.776;2022-11-20T13:09:23;94860.91;;;7.53;79.17
34185;BME280;20454;48.100;11.776;2022-11-20T13:12:09;94868.84;;;7.46;79.92
34185;BME280;20454;48.100;11.776;2022-11-20T13:14:51;94866.66;;;7.34;79.83
34185;BME280;20454;48.100;11.776;2022-11-20T13:17:47;94848.09;;;7.26;78.41
34185;BME280;20454;48.100;11.776;2022-11-20T13:20:18;94868.91;;;7.32;78.81
34185;BME280;20454;48.100;11.776;2022-11-20T13:22:50;94855.69;;;7.21;79.19
34185;BME280;20454;48.100;11.776;2022-11-20T13:25:32;94857.78;;;7.15;79.54
34185;BME280;20454;48.100;11.776;2022-11-20T13:30:48;94848.66;;;7.15;80.72
34185;BME280;20454;48.100;11.776;2022-11-20T13:33:35;94857.84;;;7.24;80.40
34185;BME280;20454;48.100;11.776;2022-11-20T13:36:28;94851.66;;;7.27;80.72
34185;BME280;20454;48.100;11.776;2022-11-20T13:38:55;94856.69;;;7.25;80.16
34185;BME280;20454;48.100;11.776;2022-11-20T13:41:32;94853.75;;;7.21;80.69
34185;BME280;20454;48.100;11.776;2022-11-20T13:44:39;94855.66;;;7.12;80.72
34185;BME280;20454;48.100;11.776;2022-11-20T13:47:47;94834.59;;;7.03;81.45
34185;BME280;20454;48.100;11.776;2022-11-20T13:50:14;94852.28;;;6.93;82.11
34185;BME280;20454;48.100;11.776;2022-11-20T13:52:56;94856.09;;;6.84;83.36
34185;BME280;20454;48.100;11.776;2022-11-20T13:55:54;94853.66;;;6.82;84.45
34185;BME280;20454;48.100;11.776;2022-11-20T14:01:30;94845.09;;;6.70;85.50
34185;BME280;20454;48.100;11.776;2022-11-20T14:04:07;94847.84;;;6.70;86.41
34185;BME280;20454;48.100;11.776;2022-11-20T14:06:45;94840.59;;;6.74;86.78
34185;BME280;20454;48.100;11.776;2022-11-20T14:09:33;94841.72;;;6.73;85.91
34185;BME280;20454;48.100;11.776;2022-11-20T14:12:00;94845.16;;;6.79;84.66
34185;BME280;20454;48.100;11.776;2022-11-20T14:14:28;94843.03;;;6.76;85.64
34185;BME280;20454;48.100;11.776;2022-11-20T14:17:18;94840.78;;;6.78;84.71
34185;BME280;20454;48.100;11.776;2022-11-20T14:19:47;94840.13;;;6.81;84.38
34185;BME280;20454;48.100;11.776;2022-11-20T14:22:27;94836.25;;;6.82;84.48
34185;BME280;20454;48.100;11.776;2022-11-20T14:27:41;94845.06;;;6.84;85.19
34185;BME280;20454;48.100;11.776;2022-11-20T14:30:21;94839.72;;;6.87;83.31
34185;BME280;20454;48.100;11.776;2022-11-20T14:32:48;94836.94;;;6.87;83.91
34185;BME280;20454;48.100;11.776;2022-11-20T14:35:29;94831.84;;;6.81;83.30
34185;BME280;20454;48.100;11.776;2022-11-20T14:37:55;94835.94;;;6.83;83.05
34185;BME280;20454;48.100;11.776;2022-11-20T14:40:42;94837.91;;;6.83;82.87
34185;BME280;20454;48.100;11.776;2022-11-20T14:43:25;94837.59;;;6.84;84.18
34185;BME280;20454;48.100;11.776;2022-11-20T14:45:59;94834.19;;;6.87;82.59
34185;BME280;20454;48.100;11.776;2022-11-20T14:49:00;94836.44;;;6.85;82.79
34185;BME280;20454;48.100;11.776;2022-11-20T14:51:36;94832.38;;;6.83;82.71
34185;BME280;20454;48.100;11.776;2022-11-20T14:54:20;94835.44;;;6.81;82.99
34185;BME280;20454;48.100;11.776;2022-11-20T14:57:00;94836.06;;;6.78;82.76
34185;BME280;20454;48.100;11.776;2022-11-20T14:59:30;94846.31;;;6.78;83.20
34185;BME280;20454;48.100;11.776;2022-11-20T15:02:02;94843.53;;;6.78;83.91
34185;BME280;20454;48.100;11.776;2022-11-20T15:04:30;94845.66;;;6.81;83.62
34185;BME280;20454;48.100;11.776;2022-11-20T15:07:00;94854.47;;;6.83;81.50
34185;BME280;20454;48.100;11.776;2022-11-20T15:09:26;94849.06;;;6.78;81.14
34185;BME280;20454;48.100;11.776;2022-11-20T15:12:01;94845.28;;;6.74;82.38
34185;BME280;20454;48.100;11.776;2022-11-20T15:14:29;94843.16;;;6.71;82.58
34185;BME280;20454;48.100;11.776;2022-11-20T15:16:56;94838.59;;;6.66;80.99
34185;BME280;20454;48.100;11.776;2022-11-20T15:19:25;94846.56;;;6.68;81.27
34185;BME280;20454;48.100;11.776;2022-11-20T15:21:52;94842.47;;;6.65;80.58
34185;BME280;20454;48.100;11.776;2022-11-20T15:24:18;94852.47;;;6.75;80.02
34185;BME280;20454;48.100;11.776;2022-11-20T15:26:44;94844.78;;;6.72;78.96
34185;BME280;20454;48.100;11.776;2022-11-20T15:29:15;94834.38;;;6.69;79.37
34185;BME280;20454;48.100;11.776;2022-11-20T15:31:44;94837.25;;;6.64;79.39
34185;BME280;20454;48.100;11.776;2022-11-20T15:34:12;94829.81;;;6.64;79.39
34185;BME280;20454;48.100;11.776;2022-11-20T15:36:42;94832.03;;;6.62;79.75
34185;BME280;20454;48.100;11.776;2022-11-20T15:39:09;94834.13;;;6.57;79.63
34185;BME280;20454;48.100;11.776;2022-11-20T15:41:37;94828.72;;;6.52;79.43
34185;BME280;20454;48.100;11.776;2022-11-20T15:44:04;94828.91;;;6.55;79.75
34185;BME280;20454;48.100;11.776;2022-11-20T15:46:32;94827.56;;;6.53;79.46
34185;BME280;20454;48.100;11.776;2022-11-20T15:49:04;94829.34;;;6.49;80.36
34185;BME280;20454;48.100;11.776;2022-11-20T15:51:36;94821.06;;;6.49;80.54
34185;BME280;20454;48.100;11.776;2022-11-20T15:54:20;94826.09;;;6.47;80.78
34185;BME280;20454;48.100;11.776;2022-11-20T15:56:48;94822.63;;;6.41;80.82
34185;BME280;20454;48.100;11.776;2022-11-20T15:59:14;94817.91;;;6.42;81.51
34185;BME280;20454;48.100;11.776;2022-11-20T16:01:42;94828.28;;;6.36;80.63
34185;BME280;20454;48.100;11.776;2022-11-20T16:04:11;94831.03;;;6.36;81.27
34185;BME280;20454;48.100;11.776;2022-11-20T16:06:37;94834.41;;;6.33;81.36
34185;BME280;20454;48.100;11.776;2022-11-20T16:09:03;94836.00;;;6.26;81.58
34185;BME280;20454;48.100;11.776;2022-11-20T16:11:29;94832.50;;;6.20;81.86
34185;BME280;20454;48.100;11.776;2022-11-20T16:13:55;94835.41;;;6.15;82.43
34185;BME280;20454;48.100;11.776;2022-11-20T16:16:39;94835.81;;;6.09;82.89
34185;BME280;20454;48.100;11.776;2022-11-20T16:19:13;94830.72;;;6.02;83.58
34185;BME280;20454;48.100;11.776;2022-11-20T16:21:40;94823.69;;;5.96;84.20
34185;BME280;20454;48.100;11.776;2022-11-20T16:24:12;94825.72;;;5.91;84.48
34185;BME280;20454;48.100;11.776;2022-11-20T16:26:39;94823.41;;;5.84;85.22
34185;BME280;20454;48.100;11.776;2022-11-20T16:29:09;94810.00;;;5.78;85.44
34185;BME280;20454;48.100;11.776;2022-11-20T16:31:35;94825.22;;;5.75;86.01
34185;BME280;20454;48.100;11.776;2022-11-20T16:34:05;94812.16;;;5.67;85.96
34185;BME280;20454;48.100;11.776;2022-11-20T16:36:32;94812.75;;;5.64;86.16
34185;BME280;20454;48.100;11.776;2022-11-20T16:39:00;94815.81;;;5.63;86.39
34185;BME280;20454;48.100;11.776;2022-11-20T16:41:30;94805.00;;;5.53;86.92
34185;BME280;20454;48.100;11.776;2022-11-20T16:43:59;94815.22;;;5.52;87.25
34185;BME280;20454;48.100;11.776;2022-11-20T16:46:29;94811.47;;;5.48;87.38
34185;BME280;20454;48.100;11.776;2022-11-20T16:49:11;94815.94;;;5.44;87.78
34185;BME280;20454;48.100;11.776;2022-11-20T16:51:37;94803.59;;;5.42;88.44
34185;BME280;20454;48.100;11.776;2022-11-20T16:54:05;94806.75;;;5.35;88.08
34185;BME280;20454;48.100;11.776;2022-11-20T16:56:32;94810.56;;;5.39;88.61
34185;BME280;20454;48.100;11.776;2022-11-20T16:58:59;94803.16;;;5.35;88.25
34185;BME280;20454;48.100;11.776;2022-11-20T17:01:27;94807.38;;;5.32;88.63
34185;BME280;20454;48.100;11.776;2022-11-20T17:03:59;94815.97;;;5.31;88.61
34185;BME280;20454;48.100;11.776;2022-11-20T17:06:28;94811.16;;;5.23;89.37
34185;BME280;20454;48.100;11.776;2022-11-20T17:08:56;94812.38;;;5.17;89.53
34185;BME280;20454;48.100;11.776;2022-11-20T17:11:24;94796.75;;;5.12;89.80
34185;BME280;20454;48.100;11.776;2022-11-20T17:13:51;94807.25;;;5.10;90.13
34185;BME280;20454;48.100;11.776;2022-11-20T17:16:22;94800.53;;;5.03;90.46
34185;BME280;20454;48.100;11.776;2022-11-20T17:18:48;94798.16;;;4.96;90.92
34185;BME280;20454;48.100;11.776;2022-11-20T17:21:19;94801.13;;;4.86;91.32
34185;BME280;20454;48.100;11.776;2022-11-20T17:23:46;94791.09;;;4.77;91.25
34185;BME280;20454;48.100;11.776;2022-11-20T17:26:21;94799.22;;;4.68;91.79
34185;BME280;20454;48.100;11.776;2022-11-20T17:31:30;94794.41;;;4.47;92.75
34185;BME280;20454;48.100;11.776;2022-11-20T17:33:56;94795.69;;;4.36;92.93
34185;BME280;20454;48.100;11.776;2022-11-20T17:36:24;94797.19;;;4.29;93.73
34185;BME280;20454;48.100;11.776;2022-11-20T17:38:49;94800.63;;;4.21;93.88
34185;BME280;20454;48.100;11.776;2022-11-20T17:41:19;94787.31;;;4.09;94.35
34185;BME280;20454;48.100;11.776;2022-11-20T17:43:45;94781.09;;;4.04;94.67
34185;BME280;20454;48.100;11.776;2022-11-20T17:46:17;94782.28;;;3.98;94.93
34185;BME280;20454;48.100;11.776;2022-11-20T17:48:44;94779.38;;;3.89;95.57
34185;BME280;20454;48.100;11.776;2022-11-20T17:51:17;94770.19;;;3.80;95.66
34185;BME280;20454;48.100;11.776;2022-11-20T17:53:46;94785.03;;;3.79;95.78
34185;BME280;20454;48.100;11.776;2022-11-20T19:52:56;94698.31;;;3.13;100.00
34185;BME280;20454;48.100;11.776;2022-11-20T19:55:22;94692.22;;;3.16;100.00
34185;BME280;20454;48.100;11.776;2022-11-20T19:57:47;94695.19;;;3.19;100.00
34185;BME280;20454;48.100;11.776;2022-11-20T20:00:14;94691.66;;;3.19;100.00
34185;BME280;20454;48.100;11.776;2022-11-20T20:02:39;94688.81;;;3.24;100.00
34185;BME280;20454;48.100;11.776;2022-11-20T20:05:06;94686.06;;;3.24;100.00
34185;BME280;20454;48.100;11.776;2022-11-20T20:07:31;94687.13;;;3.28;100.00
34185;BME280;20454;48.100;11.776;2022-11-20T20:09:57;94684.88;;;3.30;100.00
34185;BME280;20454;48.100;11.776;2022-11-20T20:12:23;94682.41;;;3.28;100.00
34185;BME280;20454;48.100;11.776;2022-11-20T20:14:48;94685.16;;;3.28;100.00
34185;BME280;20454;48.100;11.776;2022-11-20T20:17:14;94680.22;;;3.30;100.00
34185;BME280;20454;48.100;11.776;2022-11-20T20:19:40;94677.75;;;3.29;100.00
34185;BME280;20454;48.100;11.776;2022-11-20T20:22:05;94683.84;;;3.26;100.00
34185;BME280;20454;48.100;11.776;2022-11-20T20:24:31;94679.16;;;3.26;100.00
34185;BME280;20454;48.100;11.776;2022-11-20T20:26:57;94667.38;;;3.26;100.00
34185;BME280;20454;48.100;11.776;2022-11-20T20:29:23;94678.88;;;3.28;100.00
34185;BME280;20454;48.100;11.776;2022-11-20T20:31:48;94680.00;;;3.27;100.00
34185;BME280;20454;48.100;11.776;2022-11-20T20:34:15;94675.38;;;3.22;100.00
34185;BME280;20454;48.100;11.776;2022-11-20T20:36:40;94678.34;;;3.26;100.00
34185;BME280;20454;48.100;11.776;2022-11-20T20:39:08;94667.44;;;3.21;100.00
34185;BME280;20454;48.100;11.776;2022-11-20T20:41:35;94668.56;;;3.20;99.76
34185;BME280;20454;48.100;11.776;2022-11-20T20:44:01;94672.31;;;3.24;99.92
34185;BME280;20454;48.100;11.776;2022-11-20T20:46:45;94674.28;;;3.23;100.00
34185;BME280;20454;48.100;11.776;2022-11-20T20:49:11;94660.53;;;3.23;100.00
34185;BME280;20454;48.100;11.776;2022-11-20T20:51:36;94659.13;;;3.26;100.00
34185;BME280;20454;48.100;11.776;2022-11-20T20:54:03;94656.88;;;3.28;100.00
34185;BME280;20454;48.100;11.776;2022-11-20T20:56:29;94651.31;;;3.33;100.00
34185;BME280;20454;48.100;11.776;2022-11-20T20:58:55;94651.81;;;3.35;100.00
34185;BME280;20454;48.100;11.776;2022-11-20T21:01:21;94646.03;;;3.36;100.00
34185;BME280;20454;48.100;11.776;2022-11-20T21:03:47;94651.75;;;3.40;100.00
34185;BME280;20454;48.100;11.776;2022-11-20T21:06:13;94640.16;;;3.43;100.00
34185;BME280;20454;48.100;11.776;2022-11-20T21:08:39;94646.78;;;3.42;100.00
34185;BME280;20454;48.100;11.776;2022-11-20T21:11:09;94643.41;;;3.45;100.00
34185;BME280;20454;48.100;11.776;2022-11-20T21:13:37;94633.75;;;3.47;100.00
34185;BME280;20454;48.100;11.776;2022-11-20T21:16:03;94627.75;;;3.45;100.00
34185;BME280;20454;48.100;11.776;2022-11-20T21:18:30;94629.88;;;3.48;100.00
34185;BME280;20454;48.100;11.776;2022-11-20T21:20:57;94628.69;;;3.54;99.65
34185;BME280;20454;48.100;11.776;2022-11-20T21:23:45;94619.66;;;3.54;98.26
34185;BME280;20454;48.100;11.776;2022-11-20T21:26:12;94633.44;;;3.67;97.28
34185;BME280;20454;48.100;11.776;2022-11-20T21:28:37;94625.09;;;3.72;95.56
34185;BME280;20454;48.100;11.776;2022-11-20T21:36:07;94614.13;;;3.86;93.32
34185;BME280;20454;48.100;11.776;2022-11-20T21:38:33;94615.44;;;3.88;92.76
34185;BME280;20454;48.100;11.776;2022-11-20T21:41:00;94619.97;;;3.98;92.39
34185;BME280;20454;48.100;11.776;2022-11-20T21:43:26;94618.13;;;3.93;92.51
34185;BME280;20454;48.100;11.776;2022-11-20T21:45:51;94631.69;;;4.03;91.40
34185;BME280;20454;48.100;11.776;2022-11-20T21:48:17;94622.50;;;4.08;91.48
34185;BME280;20454;48.100;11.776;2022-11-20T21:50:43;94620.16;;;4.15;90.63
34185;BME280;20454;48.100;11.776;2022-11-20T21:53:09;94644.66;;;4.16;90.13
34185;BME280;20454;48.100;11.776;2022-11-20T21:55:35;94648.94;;;4.22;89.67
34185;BME280;20454;48.100;11.776;2022-11-20T21:58:00;94656.38;;;4.22;90.08
34185;BME280;20454;48.100;11.776;2022-11-20T22:00:27;94664.25;;;4.28;89.16
34185;BME280;20454;48.100;11.776;2022-11-20T22:02:53;94674.66;;;4.45;88.19
34185;BME280;20454;48.100;11.776;2022-11-20T22:05:19;94674.66;;;4.58;88.37
34185;BME280;20454;48.100;11.776;2022-11-20T22:07:44;94675.41;;;4.77;88.45
34185;BME280;20454;48.100;11.776;2022-11-20T22:10:11;94691.50;;;4.83;89.50
34185;BME280;20454;48.100;11.776;2022-11-20T22:12:37;94686.09;;;4.92;90.24
34185;BME280;20454;48.100;11.776;2022-11-20T22:15:03;94692.94;;;4.94;91.38
34185;BME280;20454;48.100;11.776;2022-11-20T22:17:29;94692.31;;;4.97;91.62
34185;BME280;20454;48.100;11.776;2022-11-20T22:20:16;94672.53;;;4.95;92.59
34185;BME280;20454;48.100;11.776;2022-11-20T22:22:42;94675.69;;;5.02;94.08
34185;BME280;20454;48.100;11.776;2022-11-20T22:25:08;94673.03;;;4.97;94.78
34185;BME280;20454;48.100;11.776;2022-11-20T22:27:34;94669.38;;;4.88;95.18
34185;BME280;20454;48.100;11.776;2022-11-20T22:29:59;94662.03;;;4.84;96.50
34185;BME280;20454;48.100;11.776;2022-11-20T22:32:25;94654.69;;;4.79;97.17
34185;BME280;20454;48.100;11.776;2022-11-20T22:34:51;94647.53;;;4.78;97.86
34185;BME280;20454;48.100;11.776;2022-11-20T22:37:16;94648.97;;;4.76;98.29
34185;BME280;20454;48.100;11.776;2022-11-20T22:39:42;94655.63;;;4.75;98.87
34185;BME280;20454;48.100;11.776;2022-11-20T22:42:08;94649.38;;;4.69;99.86
34185;BME280;20454;48.100;11.776;2022-11-20T22:44:33;94651.53;;;4.72;98.83
34185;BME280;20454;48.100;11.776;2022-11-20T22:46:59;94649.19;;;4.79;98.78
34185;BME280;20454;48.100;11.776;2022-11-20T22:49:25;94654.69;;;4.79;99.36
34185;BME280;20454;48.100;11.776;2022-11-20T22:51:50;94651.03;;;4.70;100.00
34185;BME280;20454;48.100;11.776;2022-11-20T22:54:16;94665.38;;;4.67;100.00
34185;BME280;20454;48.100;11.776;2022-11-20T22:56:42;94664.25;;;4.68;100.00
34185;BME280;20454;48.100;11.776;2022-11-20T22:59:08;94661.22;;;4.70;100.00
34185;BME280;20454;48.100;11.776;2022-11-20T23:01:35;94674.25;;;4.78;100.00
34185;BME280;20454;48.100;11.776;2022-11-20T23:04:05;94676.53;;;4.76;100.00
34185;BME280;20454;48.100;11.776;2022-11-20T23:06:31;94674.06;;;4.74;100.00
34185;BME280;20454;48.100;11.776;2022-11-20T23:09:01;94673.44;;;4.64;100.00
34185;BME280;20454;48.100;11.776;2022-11-20T23:11:29;94673.88;;;4.57;100.00
34185;BME280;20454;48.100;11.776;2022-11-20T23:13:58;94671.63;;;4.59;100.00